METAR Data
IDs: Format: Raw Decoded Include TAF

Data at: 1633 UTC 18 Feb 2019

METAR for:KIOW (Iowa City Muni, IA, US)
Text:KIOW 181552Z AUTO 32005KT 10SM SCT021 M06/M09 A3041 RMK AO2 SLP307 T10561094
Temperature: -5.6°C ( 22°F)
Dewpoint: -9.4°C ( 15°F) [RH = 75%]
Pressure (altimeter):30.41 inches Hg (1029.9 mb) [Sea level pressure: 1030.7 mb]
Winds:from the NW (320 degrees) at 6 MPH (5 knots; 2.6 m/s)
Visibility:10 or more sm (16+ km)
Ceiling:at least 12,000 feet AGL
Clouds: scattered clouds at 2100 feet AGL
QC Flag:automated observation with no human augmentation